Tenpaizan Maru — JD2032 — position and weather

sailwx.info

Track history (hours):
 
Tides and Currents Weather Stations Pressure Air Temp Water Temp Dewpoint Dewpoint Depression Visibility Wind Speed Wind Dir Waves Ship Positions

Tenpaizan Maru

Last reported at 2018-Jun-24 10:03 UTC. Time now 2018-Jun-24 18:54 UTC.
Position N 33°29' E 134°59'.

Length 126 m; draft 5.6 m.

Type: Cargo ship. MMSI: 431602283.

Date/timePositionNaut miles runAvg speedWind from/ knotsBaromVisibWave heightAir tempDewpointWater temp
2018-Jun-24 10:03N 33°29' E 134°59'112.5
2018-Jun-24 09:57N 33°29' E 135°00'25411.6
2018-Jun-23 12:09N 35°07' E 139°44'314.6
2018-Jun-23 11:57N 35°10' E 139°45'613.1
2018-Jun-23 11:30N 35°16' E 139°46'612.5
2018-Jun-23 11:00N 35°21' E 139°42'611.7
2018-Jun-23 10:30N 35°26' E 139°46'714.4
2018-Jun-23 10:00N 35°31' E 139°52'813.5
2018-Jun-23 09:27N 35°36' E 139°59'3 0.3
2018-Jun-22 21:47N 35°40' E 139°59'5 8.4
2018-Jun-22 21:10N 35°34' E 139°59'212.0
2018-Jun-22 21:00N 35°33' E 139°57'712.3
2018-Jun-22 20:28N 35°28' E 139°51'612.3
2018-Jun-22 20:00N 35°24' E 139°46'612.4
2018-Jun-22 19:31N 35°18' E 139°44'612.1
2018-Jun-22 19:01N 35°13' E 139°47'713.3
2018-Jun-22 18:29N 35°06' E 139°46'713.4
2018-Jun-22 18:00N 35°00' E 139°43'  
2018-Jun-18 14:01N 35°04' E 139°41'213.7
2018-Jun-18 13:52N 35°05' E 139°43'613.1
2018-Jun-18 13:26N 35°10' E 139°45'613.2
2018-Jun-18 13:00N 35°16' E 139°46'612.1
2018-Jun-18 12:30N 35°21' E 139°42'612.3
2018-Jun-18 12:00N 35°26' E 139°46'713.6
2018-Jun-18 11:30N 35°31' E 139°53'811.7
2018-Jun-18 10:49N 35°37' E 139°59'3 9.2
2018-Jun-18 10:29N 35°40' E 139°59'0 0.0
2018-Jun-17 22:24N 35°40' E 139°59'4 0.9
2018-Jun-17 18:15N 35°36' E 139°60'3 9.9
2018-Jun-17 17:54N 35°33' E 139°57'513.1
2018-Jun-17 17:30N 35°30' E 139°53'612.9
2018-Jun-17 17:00N 35°25' E 139°47'612.6
2018-Jun-17 16:31N 35°19' E 139°44'611.9
2018-Jun-17 16:00N 35°14' E 139°47'712.9
2018-Jun-17 15:30N 35°07' E 139°45'  
Track history (hours):
 
Tides and Currents Weather Stations Pressure Air Temp Water Temp Dewpoint Dewpoint Depression Visibility Wind Speed Wind Dir Waves Ship Positions

Tenpaizan Maru

Last reported at 2018-Jun-24 10:03 UTC. Time now 2018-Jun-24 18:54 UTC.
Position N 33°29' E 134°59'.

Length 126 m; draft 5.6 m.

Type: Cargo ship. MMSI: 431602283.

Date/timePositionNaut miles runAvg speedWind from/ knotsBaromVisibWave heightAir tempDewpointWater temp
2018-Jun-24 10:03N 33°29' E 134°59'112.5
2018-Jun-24 09:57N 33°29' E 135°00'25411.6
2018-Jun-23 12:09N 35°07' E 139°44'314.6
2018-Jun-23 11:57N 35°10' E 139°45'613.1
2018-Jun-23 11:30N 35°16' E 139°46'612.5
2018-Jun-23 11:00N 35°21' E 139°42'611.7
2018-Jun-23 10:30N 35°26' E 139°46'714.4
2018-Jun-23 10:00N 35°31' E 139°52'813.5
2018-Jun-23 09:27N 35°36' E 139°59'3 0.3
2018-Jun-22 21:47N 35°40' E 139°59'5 8.4
2018-Jun-22 21:10N 35°34' E 139°59'212.0
2018-Jun-22 21:00N 35°33' E 139°57'712.3
2018-Jun-22 20:28N 35°28' E 139°51'612.3
2018-Jun-22 20:00N 35°24' E 139°46'612.4
2018-Jun-22 19:31N 35°18' E 139°44'612.1
2018-Jun-22 19:01N 35°13' E 139°47'713.3
2018-Jun-22 18:29N 35°06' E 139°46'713.4
2018-Jun-22 18:00N 35°00' E 139°43'  
2018-Jun-18 14:01N 35°04' E 139°41'213.7
2018-Jun-18 13:52N 35°05' E 139°43'613.1
2018-Jun-18 13:26N 35°10' E 139°45'613.2
2018-Jun-18 13:00N 35°16' E 139°46'612.1
2018-Jun-18 12:30N 35°21' E 139°42'612.3
2018-Jun-18 12:00N 35°26' E 139°46'713.6
2018-Jun-18 11:30N 35°31' E 139°53'811.7
2018-Jun-18 10:49N 35°37' E 139°59'3 9.2
2018-Jun-18 10:29N 35°40' E 139°59'0 0.0
2018-Jun-17 22:24N 35°40' E 139°59'4 0.9
2018-Jun-17 18:15N 35°36' E 139°60'3 9.9
2018-Jun-17 17:54N 35°33' E 139°57'513.1
2018-Jun-17 17:30N 35°30' E 139°53'612.9
2018-Jun-17 17:00N 35°25' E 139°47'612.6
2018-Jun-17 16:31N 35°19' E 139°44'611.9
2018-Jun-17 16:00N 35°14' E 139°47'712.9
2018-Jun-17 15:30N 35°07' E 139°45'  

Dump ship's entire track history